sensor_id;sensor_type;location;lat;lon;timestamp;P1;durP1;ratioP1;P2;durP2;ratioP2
56680;SDS011;42558;52.388;13.390;2022-09-21T00:01:28;7.79;;;3.80;;
56680;SDS011;42558;52.388;13.390;2022-09-21T00:03:59;7.79;;;3.99;;
56680;SDS011;42558;52.388;13.390;2022-09-21T00:06:30;11.78;;;3.99;;
56680;SDS011;42558;52.388;13.390;2022-09-21T00:08:59;10.07;;;4.56;;
56680;SDS011;42558;52.388;13.390;2022-09-21T00:11:28;7.79;;;4.75;;
56680;SDS011;42558;52.388;13.390;2022-09-21T00:14:14;7.22;;;3.80;;
56680;SDS011;42558;52.388;13.390;2022-09-21T00:16:42;7.79;;;4.18;;
56680;SDS011;42558;52.388;13.390;2022-09-21T00:19:09;8.17;;;4.18;;
56680;SDS011;42558;52.388;13.390;2022-09-21T00:21:37;8.55;;;4.75;;
56680;SDS011;42558;52.388;13.390;2022-09-21T00:24:06;6.46;;;3.80;;
56680;SDS011;42558;52.388;13.390;2022-09-21T00:26:33;8.17;;;4.56;;
56680;SDS011;42558;52.388;13.390;2022-09-21T00:29:01;7.60;;;3.80;;
56680;SDS011;42558;52.388;13.390;2022-09-21T00:31:30;7.22;;;3.61;;
56680;SDS011;42558;52.388;13.390;2022-09-21T00:33:58;8.93;;;3.99;;
56680;SDS011;42558;52.388;13.390;2022-09-21T00:36:26;8.74;;;4.56;;
56680;SDS011;42558;52.388;13.390;2022-09-21T00:38:59;7.98;;;4.37;;
56680;SDS011;42558;52.388;13.390;2022-09-21T00:41:30;8.74;;;4.94;;
56680;SDS011;42558;52.388;13.390;2022-09-21T00:44:30;12.35;;;4.75;;
56680;SDS011;42558;52.388;13.390;2022-09-21T00:47:04;10.07;;;5.32;;
56680;SDS011;42558;52.388;13.390;2022-09-21T00:49:35;8.55;;;4.75;;
56680;SDS011;42558;52.388;13.390;2022-09-21T00:52:04;7.98;;;4.37;;
56680;SDS011;42558;52.388;13.390;2022-09-21T00:54:38;10.26;;;4.94;;
56680;SDS011;42558;52.388;13.390;2022-09-21T00:57:13;6.65;;;3.80;;
56680;SDS011;42558;52.388;13.390;2022-09-21T00:59:43;6.84;;;3.99;;
56680;SDS011;42558;52.388;13.390;2022-09-21T01:02:11;10.07;;;4.56;;
56680;SDS011;42558;52.388;13.390;2022-09-21T01:04:41;10.26;;;5.51;;
56680;SDS011;42558;52.388;13.390;2022-09-21T01:07:13;8.93;;;5.13;;
56680;SDS011;42558;52.388;13.390;2022-09-21T01:09:46;7.22;;;4.37;;
56680;SDS011;42558;52.388;13.390;2022-09-21T01:15:40;7.98;;;4.75;;
56680;SDS011;42558;52.388;13.390;2022-09-21T01:22:09;9.69;;;4.75;;
56680;SDS011;42558;52.388;13.390;2022-09-21T01:30:30;10.83;;;4.94;;
56680;SDS011;42558;52.388;13.390;2022-09-21T01:33:05;9.50;;;5.13;;
56680;SDS011;42558;52.388;13.390;2022-09-21T01:35:47;9.88;;;5.13;;
56680;SDS011;42558;52.388;13.390;2022-09-21T01:38:25;9.50;;;5.13;;
56680;SDS011;42558;52.388;13.390;2022-09-21T01:40:59;8.17;;;5.13;;
56680;SDS011;42558;52.388;13.390;2022-09-21T01:43:39;7.98;;;4.94;;
56680;SDS011;42558;52.388;13.390;2022-09-21T01:46:14;8.74;;;4.94;;
56680;SDS011;42558;52.388;13.390;2022-09-21T01:48:46;9.69;;;4.94;;
56680;SDS011;42558;52.388;13.390;2022-09-21T01:51:19;8.17;;;4.56;;
56680;SDS011;42558;52.388;13.390;2022-09-21T01:53:54;11.59;;;4.94;;
56680;SDS011;42558;52.388;13.390;2022-09-21T01:56:34;9.31;;;5.13;;
56680;SDS011;42558;52.388;13.390;2022-09-21T01:59:21;7.98;;;4.56;;
56680;SDS011;42558;52.388;13.390;2022-09-21T02:02:08;10.07;;;5.89;;
56680;SDS011;42558;52.388;13.390;2022-09-21T02:04:39;8.36;;;5.13;;
56680;SDS011;42558;52.388;13.390;2022-09-21T02:07:07;10.83;;;4.56;;
56680;SDS011;42558;52.388;13.390;2022-09-21T02:09:38;11.21;;;5.51;;
56680;SDS011;42558;52.388;13.390;2022-09-21T02:12:06;8.36;;;4.94;;
56680;SDS011;42558;52.388;13.390;2022-09-21T02:14:44;10.64;;;4.18;;
56680;SDS011;42558;52.388;13.390;2022-09-21T02:20:27;8.36;;;5.70;;
56680;SDS011;42558;52.388;13.390;2022-09-21T02:23:19;9.12;;;4.94;;
56680;SDS011;42558;52.388;13.390;2022-09-21T02:26:11;9.69;;;4.94;;
56680;SDS011;42558;52.388;13.390;2022-09-21T02:31:35;7.79;;;4.56;;
56680;SDS011;42558;52.388;13.390;2022-09-21T02:34:43;8.17;;;4.18;;
56680;SDS011;42558;52.388;13.390;2022-09-21T02:37:18;10.07;;;5.32;;
56680;SDS011;42558;52.388;13.390;2022-09-21T02:43:04;7.79;;;4.37;;
56680;SDS011;42558;52.388;13.390;2022-09-21T02:45:46;9.50;;;4.94;;
56680;SDS011;42558;52.388;13.390;2022-09-21T02:48:25;9.31;;;4.18;;
56680;SDS011;42558;52.388;13.390;2022-09-21T02:50:59;7.22;;;3.99;;
56680;SDS011;42558;52.388;13.390;2022-09-21T02:53:35;7.60;;;3.80;;
56680;SDS011;42558;52.388;13.390;2022-09-21T02:56:06;8.55;;;3.99;;
56680;SDS011;42558;52.388;13.390;2022-09-21T02:58:37;7.79;;;4.37;;
56680;SDS011;42558;52.388;13.390;2022-09-21T03:01:12;8.36;;;4.18;;
56680;SDS011;42558;52.388;13.390;2022-09-21T03:03:41;7.79;;;4.37;;
56680;SDS011;42558;52.388;13.390;2022-09-21T03:06:08;7.79;;;4.18;;
56680;SDS011;42558;52.388;13.390;2022-09-21T03:08:35;7.22;;;4.37;;
56680;SDS011;42558;52.388;13.390;2022-09-21T03:11:01;7.60;;;4.18;;
56680;SDS011;42558;52.388;13.390;2022-09-21T03:13:28;6.46;;;3.42;;
56680;SDS011;42558;52.388;13.390;2022-09-21T03:16:00;7.79;;;4.18;;
56680;SDS011;42558;52.388;13.390;2022-09-21T03:18:29;7.03;;;3.99;;
56680;SDS011;42558;52.388;13.390;2022-09-21T03:20:57;8.17;;;4.18;;
56680;SDS011;42558;52.388;13.390;2022-09-21T03:23:24;6.46;;;3.99;;
56680;SDS011;42558;52.388;13.390;2022-09-21T03:25:52;11.02;;;4.56;;
56680;SDS011;42558;52.388;13.390;2022-09-21T03:28:20;7.41;;;3.99;;
56680;SDS011;42558;52.388;13.390;2022-09-21T03:30:48;6.46;;;3.99;;
56680;SDS011;42558;52.388;13.390;2022-09-21T03:33:18;8.74;;;3.99;;
56680;SDS011;42558;52.388;13.390;2022-09-21T03:35:47;7.22;;;3.99;;
56680;SDS011;42558;52.388;13.390;2022-09-21T03:38:14;7.60;;;4.56;;
56680;SDS011;42558;52.388;13.390;2022-09-21T03:40:46;12.35;;;5.51;;
56680;SDS011;42558;52.388;13.390;2022-09-21T03:43:15;10.07;;;4.75;;
56680;SDS011;42558;52.388;13.390;2022-09-21T03:45:43;8.74;;;4.75;;
56680;SDS011;42558;52.388;13.390;2022-09-21T03:48:11;7.98;;;4.56;;
56680;SDS011;42558;52.388;13.390;2022-09-21T03:50:40;9.12;;;4.37;;
56680;SDS011;42558;52.388;13.390;2022-09-21T03:53:06;8.17;;;4.56;;
56680;SDS011;42558;52.388;13.390;2022-09-21T03:55:35;9.50;;;4.37;;
56680;SDS011;42558;52.388;13.390;2022-09-21T03:58:02;8.93;;;4.56;;
56680;SDS011;42558;52.388;13.390;2022-09-21T04:00:29;9.12;;;4.94;;
56680;SDS011;42558;52.388;13.390;2022-09-21T04:02:56;7.98;;;4.18;;
56680;SDS011;42558;52.388;13.390;2022-09-21T04:05:23;7.79;;;3.80;;
56680;SDS011;42558;52.388;13.390;2022-09-21T04:07:53;7.98;;;4.37;;
56680;SDS011;42558;52.388;13.390;2022-09-21T04:10:22;7.03;;;3.99;;
56680;SDS011;42558;52.388;13.390;2022-09-21T04:12:59;7.22;;;4.18;;
56680;SDS011;42558;52.388;13.390;2022-09-21T04:15:27;7.79;;;4.37;;
56680;SDS011;42558;52.388;13.390;2022-09-21T04:17:55;7.79;;;3.99;;
56680;SDS011;42558;52.388;13.390;2022-09-21T04:20:22;8.17;;;4.18;;
56680;SDS011;42558;52.388;13.390;2022-09-21T04:22:49;7.22;;;3.80;;
56680;SDS011;42558;52.388;13.390;2022-09-21T04:25:17;6.84;;;3.61;;
56680;SDS011;42558;52.388;13.390;2022-09-21T04:27:44;6.84;;;3.61;;
56680;SDS011;42558;52.388;13.390;2022-09-21T04:30:13;8.17;;;3.61;;
56680;SDS011;42558;52.388;13.390;2022-09-21T04:32:41;6.84;;;3.80;;
56680;SDS011;42558;52.388;13.390;2022-09-21T04:35:08;8.36;;;4.18;;
56680;SDS011;42558;52.388;13.390;2022-09-21T04:37:36;5.89;;;3.61;;
56680;SDS011;42558;52.388;13.390;2022-09-21T04:40:04;7.22;;;3.99;;
56680;SDS011;42558;52.388;13.390;2022-09-21T04:42:31;6.65;;;3.61;;
56680;SDS011;42558;52.388;13.390;2022-09-21T04:44:59;6.65;;;3.61;;
56680;SDS011;42558;52.388;13.390;2022-09-21T04:47:28;7.03;;;3.99;;
56680;SDS011;42558;52.388;13.390;2022-09-21T04:49:56;7.60;;;3.04;;
56680;SDS011;42558;52.388;13.390;2022-09-21T04:52:23;7.22;;;3.61;;
56680;SDS011;42558;52.388;13.390;2022-09-21T04:54:50;9.31;;;3.61;;
56680;SDS011;42558;52.388;13.390;2022-09-21T04:57:18;7.41;;;3.42;;
56680;SDS011;42558;52.388;13.390;2022-09-21T04:59:44;6.46;;;3.99;;
56680;SDS011;42558;52.388;13.390;2022-09-21T05:02:11;6.46;;;3.61;;
56680;SDS011;42558;52.388;13.390;2022-09-21T05:04:38;8.17;;;3.99;;
56680;SDS011;42558;52.388;13.390;2022-09-21T05:07:04;6.27;;;3.42;;
56680;SDS011;42558;52.388;13.390;2022-09-21T05:09:31;7.22;;;3.99;;
56680;SDS011;42558;52.388;13.390;2022-09-21T05:12:17;8.93;;;3.99;;
56680;SDS011;42558;52.388;13.390;2022-09-21T05:14:44;7.03;;;3.80;;
56680;SDS011;42558;52.388;13.390;2022-09-21T05:17:11;6.84;;;4.18;;
56680;SDS011;42558;52.388;13.390;2022-09-21T05:19:39;7.03;;;4.18;;
56680;SDS011;42558;52.388;13.390;2022-09-21T05:22:06;7.60;;;4.37;;
56680;SDS011;42558;52.388;13.390;2022-09-21T05:24:33;8.55;;;5.13;;
56680;SDS011;42558;52.388;13.390;2022-09-21T05:27:00;9.69;;;5.70;;
56680;SDS011;42558;52.388;13.390;2022-09-21T05:29:27;8.74;;;5.32;;
56680;SDS011;42558;52.388;13.390;2022-09-21T05:32:00;7.60;;;4.75;;
56680;SDS011;42558;52.388;13.390;2022-09-21T05:34:48;10.26;;;4.94;;
56680;SDS011;42558;52.388;13.390;2022-09-21T05:40:25;9.88;;;4.94;;
56680;SDS011;42558;52.388;13.390;2022-09-21T05:42:52;8.17;;;4.18;;
56680;SDS011;42558;52.388;13.390;2022-09-21T05:45:19;8.93;;;4.37;;
56680;SDS011;42558;52.388;13.390;2022-09-21T05:51:17;10.64;;;5.51;;
56680;SDS011;42558;52.388;13.390;2022-09-21T05:54:31;9.31;;;4.56;;
56680;SDS011;42558;52.388;13.390;2022-09-21T05:57:42;9.69;;;5.32;;
56680;SDS011;42558;52.388;13.390;2022-09-21T06:03:40;10.83;;;6.08;;
56680;SDS011;42558;52.388;13.390;2022-09-21T06:06:08;9.50;;;5.89;;
56680;SDS011;42558;52.388;13.390;2022-09-21T06:08:35;10.45;;;5.70;;
56680;SDS011;42558;52.388;13.390;2022-09-21T06:11:02;9.50;;;6.08;;
56680;SDS011;42558;52.388;13.390;2022-09-21T06:13:29;10.07;;;6.46;;
56680;SDS011;42558;52.388;13.390;2022-09-21T06:15:56;11.40;;;5.89;;
56680;SDS011;42558;52.388;13.390;2022-09-21T06:18:23;12.35;;;7.22;;
56680;SDS011;42558;52.388;13.390;2022-09-21T06:20:50;13.87;;;7.79;;
56680;SDS011;42558;52.388;13.390;2022-09-21T06:23:17;12.54;;;8.36;;
56680;SDS011;42558;52.388;13.390;2022-09-21T06:25:50;13.30;;;7.41;;
56680;SDS011;42558;52.388;13.390;2022-09-21T06:28:23;15.01;;;8.55;;
56680;SDS011;42558;52.388;13.390;2022-09-21T06:30:53;12.92;;;7.79;;
56680;SDS011;42558;52.388;13.390;2022-09-21T06:33:21;13.49;;;9.50;;
56680;SDS011;42558;52.388;13.390;2022-09-21T06:35:55;14.63;;;9.69;;
56680;SDS011;42558;52.388;13.390;2022-09-21T06:38:24;16.34;;;10.26;;
56680;SDS011;42558;52.388;13.390;2022-09-21T06:40:52;18.81;;;10.45;;
56680;SDS011;42558;52.388;13.390;2022-09-21T06:43:19;11.40;;;7.41;;
56680;SDS011;42558;52.388;13.390;2022-09-21T06:45:53;17.48;;;8.93;;
56680;SDS011;42558;52.388;13.390;2022-09-21T06:48:25;14.63;;;7.98;;
56680;SDS011;42558;52.388;13.390;2022-09-21T06:51:00;13.68;;;9.12;;
56680;SDS011;42558;52.388;13.390;2022-09-21T06:53:30;17.67;;;9.31;;
56680;SDS011;42558;52.388;13.390;2022-09-21T06:56:08;16.15;;;8.74;;
56680;SDS011;42558;52.388;13.390;2022-09-21T06:58:36;15.77;;;9.69;;
56680;SDS011;42558;52.388;13.390;2022-09-21T07:01:08;15.77;;;10.83;;
56680;SDS011;42558;52.388;13.390;2022-09-21T07:03:38;13.68;;;9.69;;
56680;SDS011;42558;52.388;13.390;2022-09-21T07:06:08;21.85;;;10.26;;
56680;SDS011;42558;52.388;13.390;2022-09-21T07:08:37;19.57;;;10.07;;
56680;SDS011;42558;52.388;13.390;2022-09-21T07:11:25;14.44;;;8.74;;
56680;SDS011;42558;52.388;13.390;2022-09-21T07:13:54;13.68;;;8.55;;
56680;SDS011;42558;52.388;13.390;2022-09-21T07:16:21;15.96;;;9.88;;
56680;SDS011;42558;52.388;13.390;2022-09-21T07:18:48;15.58;;;9.31;;
56680;SDS011;42558;52.388;13.390;2022-09-21T07:21:15;18.62;;;9.88;;
56680;SDS011;42558;52.388;13.390;2022-09-21T07:23:42;14.25;;;9.12;;
56680;SDS011;42558;52.388;13.390;2022-09-21T07:26:11;16.15;;;10.45;;
56680;SDS011;42558;52.388;13.390;2022-09-21T07:28:40;18.05;;;9.88;;
56680;SDS011;42558;52.388;13.390;2022-09-21T07:31:09;14.44;;;8.74;;
56680;SDS011;42558;52.388;13.390;2022-09-21T07:33:40;18.05;;;10.26;;
56680;SDS011;42558;52.388;13.390;2022-09-21T07:36:08;13.30;;;8.93;;
56680;SDS011;42558;52.388;13.390;2022-09-21T07:38:42;15.77;;;7.98;;
56680;SDS011;42558;52.388;13.390;2022-09-21T07:41:11;14.82;;;8.55;;
56680;SDS011;42558;52.388;13.390;2022-09-21T07:43:40;17.86;;;8.93;;
56680;SDS011;42558;52.388;13.390;2022-09-21T07:46:10;15.58;;;7.98;;
56680;SDS011;42558;52.388;13.390;2022-09-21T07:48:39;20.33;;;9.12;;
56680;SDS011;42558;52.388;13.390;2022-09-21T07:51:09;15.77;;;9.31;;
56680;SDS011;42558;52.388;13.390;2022-09-21T07:53:39;15.58;;;7.98;;
56680;SDS011;42558;52.388;13.390;2022-09-21T07:56:10;13.11;;;8.36;;
56680;SDS011;42558;52.388;13.390;2022-09-21T07:58:42;12.92;;;7.98;;
56680;SDS011;42558;52.388;13.390;2022-09-21T08:01:28;12.54;;;7.41;;
56680;SDS011;42558;52.388;13.390;2022-09-21T08:03:57;17.48;;;7.98;;
56680;SDS011;42558;52.388;13.390;2022-09-21T08:06:26;12.92;;;7.22;;
56680;SDS011;42558;52.388;13.390;2022-09-21T08:08:55;11.21;;;6.65;;
56680;SDS011;42558;52.388;13.390;2022-09-21T08:11:25;16.34;;;8.55;;
56680;SDS011;42558;52.388;13.390;2022-09-21T08:13:57;13.49;;;7.41;;
56680;SDS011;42558;52.388;13.390;2022-09-21T08:16:27;12.16;;;7.22;;
56680;SDS011;42558;52.388;13.390;2022-09-21T08:18:55;15.96;;;7.79;;
56680;SDS011;42558;52.388;13.390;2022-09-21T08:21:22;13.30;;;7.41;;
56680;SDS011;42558;52.388;13.390;2022-09-21T08:23:49;15.01;;;6.65;;
56680;SDS011;42558;52.388;13.390;2022-09-21T08:26:18;11.59;;;6.46;;
56680;SDS011;42558;52.388;13.390;2022-09-21T08:28:47;13.49;;;7.03;;
56680;SDS011;42558;52.388;13.390;2022-09-21T08:31:19;13.11;;;6.65;;
56680;SDS011;42558;52.388;13.390;2022-09-21T08:33:47;13.30;;;7.60;;
56680;SDS011;42558;52.388;13.390;2022-09-21T08:36:18;16.15;;;6.46;;
56680;SDS011;42558;52.388;13.390;2022-09-21T08:38:45;11.21;;;7.03;;
56680;SDS011;42558;52.388;13.390;2022-09-21T08:41:20;9.12;;;5.13;;
56680;SDS011;42558;52.388;13.390;2022-09-21T08:44:03;8.55;;;5.51;;
56680;SDS011;42558;52.388;13.390;2022-09-21T08:46:38;12.54;;;5.89;;
56680;SDS011;42558;52.388;13.390;2022-09-21T08:52:13;15.39;;;7.22;;
56680;SDS011;42558;52.388;13.390;2022-09-21T08:55:15;15.01;;;6.65;;
56680;SDS011;42558;52.388;13.390;2022-09-21T08:57:44;12.73;;;6.84;;
56680;SDS011;42558;52.388;13.390;2022-09-21T09:00:16;14.06;;;6.84;;
56680;SDS011;42558;52.388;13.390;2022-09-21T09:11:23;13.49;;;6.27;;
56680;SDS011;42558;52.388;13.390;2022-09-21T09:14:25;11.21;;;6.46;;
56680;SDS011;42558;52.388;13.390;2022-09-21T09:17:47;9.88;;;5.70;;
56680;SDS011;42558;52.388;13.390;2022-09-21T09:20:33;9.31;;;5.13;;
56680;SDS011;42558;52.388;13.390;2022-09-21T09:25:57;8.93;;;5.13;;
56680;SDS011;42558;52.388;13.390;2022-09-21T09:28:41;10.26;;;5.70;;
56680;SDS011;42558;52.388;13.390;2022-09-21T09:31:24;10.07;;;5.70;;
56680;SDS011;42558;52.388;13.390;2022-09-21T09:36:55;8.36;;;4.37;;
56680;SDS011;42558;52.388;13.390;2022-09-21T09:39:27;11.59;;;4.37;;
56680;SDS011;42558;52.388;13.390;2022-09-21T09:51:03;9.12;;;3.04;;
56680;SDS011;42558;52.388;13.390;2022-09-21T09:53:30;7.79;;;4.37;;
56680;SDS011;42558;52.388;13.390;2022-09-21T09:55:57;8.36;;;3.61;;
56680;SDS011;42558;52.388;13.390;2022-09-21T09:58:42;9.69;;;4.56;;
56680;SDS011;42558;52.388;13.390;2022-09-21T10:02:01;10.83;;;3.99;;
56680;SDS011;42558;52.388;13.390;2022-09-21T10:04:31;8.17;;;3.61;;
56680;SDS011;42558;52.388;13.390;2022-09-21T10:07:00;7.79;;;2.66;;
56680;SDS011;42558;52.388;13.390;2022-09-21T10:09:30;5.70;;;2.28;;
56680;SDS011;42558;52.388;13.390;2022-09-21T10:12:01;7.60;;;2.47;;
56680;SDS011;42558;52.388;13.390;2022-09-21T10:14:47;7.22;;;2.47;;
56680;SDS011;42558;52.388;13.390;2022-09-21T10:17:17;6.46;;;2.85;;
56680;SDS011;42558;52.388;13.390;2022-09-21T10:19:46;6.27;;;2.28;;
56680;SDS011;42558;52.388;13.390;2022-09-21T10:22:17;5.51;;;1.90;;
56680;SDS011;42558;52.388;13.390;2022-09-21T10:24:49;7.41;;;2.09;;
56680;SDS011;42558;52.388;13.390;2022-09-21T10:27:28;6.27;;;1.71;;
56680;SDS011;42558;52.388;13.390;2022-09-21T10:30:00;6.46;;;1.90;;
56680;SDS011;42558;52.388;13.390;2022-09-21T10:32:53;7.03;;;2.09;;
56680;SDS011;42558;52.388;13.390;2022-09-21T10:35:23;5.70;;;2.09;;
56680;SDS011;42558;52.388;13.390;2022-09-21T10:38:15;7.60;;;1.90;;
56680;SDS011;42558;52.388;13.390;2022-09-21T10:40:48;6.27;;;2.09;;
56680;SDS011;42558;52.388;13.390;2022-09-21T10:46:08;5.70;;;1.90;;
56680;SDS011;42558;52.388;13.390;2022-09-21T10:48:35;5.13;;;1.71;;
56680;SDS011;42558;52.388;13.390;2022-09-21T10:51:03;5.51;;;1.52;;
56680;SDS011;42558;52.388;13.390;2022-09-21T10:53:32;6.08;;;1.90;;
56680;SDS011;42558;52.388;13.390;2022-09-21T10:56:21;8.55;;;2.47;;
56680;SDS011;42558;52.388;13.390;2022-09-21T10:59:24;6.65;;;1.90;;
56680;SDS011;42558;52.388;13.390;2022-09-21T11:01:57;7.79;;;1.90;;
56680;SDS011;42558;52.388;13.390;2022-09-21T11:04:39;6.46;;;1.90;;
56680;SDS011;42558;52.388;13.390;2022-09-21T11:07:26;6.27;;;2.09;;
56680;SDS011;42558;52.388;13.390;2022-09-21T11:10:07;5.32;;;1.52;;
56680;SDS011;42558;52.388;13.390;2022-09-21T11:13:08;4.75;;;1.71;;
56680;SDS011;42558;52.388;13.390;2022-09-21T11:19:38;4.75;;;1.71;;
56680;SDS011;42558;52.388;13.390;2022-09-21T11:25:25;5.89;;;2.09;;
56680;SDS011;42558;52.388;13.390;2022-09-21T11:31:15;4.94;;;1.71;;
56680;SDS011;42558;52.388;13.390;2022-09-21T11:48:34;5.70;;;1.90;;
56680;SDS011;42558;52.388;13.390;2022-09-21T11:57:26;5.51;;;1.90;;
56680;SDS011;42558;52.388;13.390;2022-09-21T12:00:12;5.32;;;1.90;;
56680;SDS011;42558;52.388;13.390;2022-09-21T12:06:15;5.13;;;2.09;;
56680;SDS011;42558;52.388;13.390;2022-09-21T12:08:59;6.65;;;1.71;;
56680;SDS011;42558;52.388;13.390;2022-09-21T12:22:49;5.51;;;2.09;;
56680;SDS011;42558;52.388;13.390;2022-09-21T12:25:27;7.22;;;1.71;;
56680;SDS011;42558;52.388;13.390;2022-09-21T12:28:20;6.84;;;1.90;;
56680;SDS011;42558;52.388;13.390;2022-09-21T12:30:53;4.75;;;1.33;;
56680;SDS011;42558;52.388;13.390;2022-09-21T12:33:44;5.13;;;1.71;;
56680;SDS011;42558;52.388;13.390;2022-09-21T12:36:20;5.51;;;2.09;;
56680;SDS011;42558;52.388;13.390;2022-09-21T12:39:01;5.51;;;1.90;;
56680;SDS011;42558;52.388;13.390;2022-09-21T12:41:46;6.08;;;1.71;;
56680;SDS011;42558;52.388;13.390;2022-09-21T12:44:25;5.13;;;1.71;;
56680;SDS011;42558;52.388;13.390;2022-09-21T12:47:23;4.75;;;1.71;;
56680;SDS011;42558;52.388;13.390;2022-09-21T12:49:57;5.13;;;2.09;;
56680;SDS011;42558;52.388;13.390;2022-09-21T12:52:31;5.51;;;1.90;;
56680;SDS011;42558;52.388;13.390;2022-09-21T12:55:19;7.03;;;1.90;;
56680;SDS011;42558;52.388;13.390;2022-09-21T13:09:04;4.75;;;1.71;;
56680;SDS011;42558;52.388;13.390;2022-09-21T13:11:50;6.08;;;1.71;;
56680;SDS011;42558;52.388;13.390;2022-09-21T13:14:50;6.65;;;2.28;;
56680;SDS011;42558;52.388;13.390;2022-09-21T13:17:38;4.94;;;1.90;;
56680;SDS011;42558;52.388;13.390;2022-09-21T13:20:16;4.94;;;1.71;;
56680;SDS011;42558;52.388;13.390;2022-09-21T13:22:45;5.51;;;1.71;;
56680;SDS011;42558;52.388;13.390;2022-09-21T13:25:25;5.13;;;1.71;;
56680;SDS011;42558;52.388;13.390;2022-09-21T13:35:49;5.13;;;1.71;;
56680;SDS011;42558;52.388;13.390;2022-09-21T13:54:30;5.13;;;1.71;;
56680;SDS011;42558;52.388;13.390;2022-09-21T14:05:34;5.32;;;1.71;;
56680;SDS011;42558;52.388;13.390;2022-09-21T14:10:54;6.46;;;1.71;;
56680;SDS011;42558;52.388;13.390;2022-09-21T14:19:02;7.03;;;1.71;;
56680;SDS011;42558;52.388;13.390;2022-09-21T14:24:44;6.08;;;2.28;;
56680;SDS011;42558;52.388;13.390;2022-09-21T14:27:15;5.13;;;1.71;;
56680;SDS011;42558;52.388;13.390;2022-09-21T14:30:01;5.89;;;1.71;;
56680;SDS011;42558;52.388;13.390;2022-09-21T14:32:46;4.37;;;1.33;;
56680;SDS011;42558;52.388;13.390;2022-09-21T14:35:21;5.32;;;1.90;;
56680;SDS011;42558;52.388;13.390;2022-09-21T14:37:57;6.08;;;2.28;;
56680;SDS011;42558;52.388;13.390;2022-09-21T14:40:30;5.32;;;1.71;;
56680;SDS011;42558;52.388;13.390;2022-09-21T14:43:11;7.22;;;2.09;;
56680;SDS011;42558;52.388;13.390;2022-09-21T14:49:02;4.94;;;2.28;;
56680;SDS011;42558;52.388;13.390;2022-09-21T14:55:01;6.46;;;1.90;;
56680;SDS011;42558;52.388;13.390;2022-09-21T14:58:05;5.13;;;2.09;;
56680;SDS011;42558;52.388;13.390;2022-09-21T15:00:53;4.75;;;1.71;;
56680;SDS011;42558;52.388;13.390;2022-09-21T15:06:28;5.32;;;1.71;;
56680;SDS011;42558;52.388;13.390;2022-09-21T15:13:19;6.27;;;1.71;;
56680;SDS011;42558;52.388;13.390;2022-09-21T15:18:45;5.70;;;1.71;;
56680;SDS011;42558;52.388;13.390;2022-09-21T15:21:24;5.13;;;2.47;;
56680;SDS011;42558;52.388;13.390;2022-09-21T15:23:53;6.27;;;1.52;;
56680;SDS011;42558;52.388;13.390;2022-09-21T15:26:23;4.94;;;1.52;;
56680;SDS011;42558;52.388;13.390;2022-09-21T15:29:03;5.32;;;1.71;;
56680;SDS011;42558;52.388;13.390;2022-09-21T15:31:38;4.37;;;1.52;;
56680;SDS011;42558;52.388;13.390;2022-09-21T15:34:08;5.32;;;1.52;;
56680;SDS011;42558;52.388;13.390;2022-09-21T15:36:39;4.94;;;1.33;;
56680;SDS011;42558;52.388;13.390;2022-09-21T15:39:21;6.27;;;1.52;;
56680;SDS011;42558;52.388;13.390;2022-09-21T15:42:15;5.32;;;1.71;;
56680;SDS011;42558;52.388;13.390;2022-09-21T15:44:53;5.70;;;1.71;;
56680;SDS011;42558;52.388;13.390;2022-09-21T15:47:36;4.75;;;1.33;;
56680;SDS011;42558;52.388;13.390;2022-09-21T15:50:04;4.56;;;1.52;;
56680;SDS011;42558;52.388;13.390;2022-09-21T15:52:44;4.75;;;1.52;;
56680;SDS011;42558;52.388;13.390;2022-09-21T15:55:19;5.89;;;1.33;;
56680;SDS011;42558;52.388;13.390;2022-09-21T15:57:49;4.94;;;1.90;;
56680;SDS011;42558;52.388;13.390;2022-09-21T16:00:21;6.46;;;1.52;;
56680;SDS011;42558;52.388;13.390;2022-09-21T16:02:54;5.70;;;1.90;;
56680;SDS011;42558;52.388;13.390;2022-09-21T16:05:40;6.46;;;1.90;;
56680;SDS011;42558;52.388;13.390;2022-09-21T16:08:33;5.51;;;2.09;;
56680;SDS011;42558;52.388;13.390;2022-09-21T16:14:05;4.94;;;1.90;;
56680;SDS011;42558;52.388;13.390;2022-09-21T16:19:43;5.13;;;1.90;;
56680;SDS011;42558;52.388;13.390;2022-09-21T16:22:41;4.94;;;1.71;;
56680;SDS011;42558;52.388;13.390;2022-09-21T16:25:24;4.94;;;1.90;;
56680;SDS011;42558;52.388;13.390;2022-09-21T16:28:26;5.32;;;1.71;;
56680;SDS011;42558;52.388;13.390;2022-09-21T16:30:56;8.55;;;2.09;;
56680;SDS011;42558;52.388;13.390;2022-09-21T16:38:57;6.84;;;2.09;;
56680;SDS011;42558;52.388;13.390;2022-09-21T16:41:35;6.08;;;2.09;;
56680;SDS011;42558;52.388;13.390;2022-09-21T16:44:14;5.70;;;2.66;;
56680;SDS011;42558;52.388;13.390;2022-09-21T16:46:53;6.46;;;2.66;;
56680;SDS011;42558;52.388;13.390;2022-09-21T16:49:30;5.13;;;2.28;;
56680;SDS011;42558;52.388;13.390;2022-09-21T16:52:01;6.27;;;1.90;;
56680;SDS011;42558;52.388;13.390;2022-09-21T16:54:28;8.17;;;2.47;;
56680;SDS011;42558;52.388;13.390;2022-09-21T16:56:58;7.41;;;1.90;;
56680;SDS011;42558;52.388;13.390;2022-09-21T16:59:26;5.70;;;2.09;;
56680;SDS011;42558;52.388;13.390;2022-09-21T17:01:56;7.60;;;1.71;;
56680;SDS011;42558;52.388;13.390;2022-09-21T17:04:28;6.65;;;1.71;;
56680;SDS011;42558;52.388;13.390;2022-09-21T17:06:57;8.36;;;1.71;;
56680;SDS011;42558;52.388;13.390;2022-09-21T17:09:27;5.32;;;1.52;;
56680;SDS011;42558;52.388;13.390;2022-09-21T17:12:11;6.27;;;1.90;;
56680;SDS011;42558;52.388;13.390;2022-09-21T17:14:41;6.65;;;2.28;;
56680;SDS011;42558;52.388;13.390;2022-09-21T17:17:18;6.84;;;2.09;;
56680;SDS011;42558;52.388;13.390;2022-09-21T17:19:49;5.70;;;2.09;;
56680;SDS011;42558;52.388;13.390;2022-09-21T17:22:17;5.51;;;1.71;;
56680;SDS011;42558;52.388;13.390;2022-09-21T17:24:46;8.17;;;1.90;;
56680;SDS011;42558;52.388;13.390;2022-09-21T17:27:20;5.32;;;1.71;;
56680;SDS011;42558;52.388;13.390;2022-09-21T17:29:49;8.55;;;2.66;;
56680;SDS011;42558;52.388;13.390;2022-09-21T17:32:20;11.40;;;1.52;;
56680;SDS011;42558;52.388;13.390;2022-09-21T17:37:47;4.94;;;1.52;;
56680;SDS011;42558;52.388;13.390;2022-09-21T17:40:14;6.65;;;1.71;;
56680;SDS011;42558;52.388;13.390;2022-09-21T17:42:42;6.46;;;1.52;;
56680;SDS011;42558;52.388;13.390;2022-09-21T17:45:14;8.55;;;2.09;;
56680;SDS011;42558;52.388;13.390;2022-09-21T17:47:44;7.03;;;1.90;;
56680;SDS011;42558;52.388;13.390;2022-09-21T17:52:39;8.74;;;2.09;;
56680;SDS011;42558;52.388;13.390;2022-09-21T17:55:26;7.79;;;1.90;;
56680;SDS011;42558;52.388;13.390;2022-09-21T17:58:06;7.60;;;2.28;;
56680;SDS011;42558;52.388;13.390;2022-09-21T18:03:28;6.84;;;2.47;;
56680;SDS011;42558;52.388;13.390;2022-09-21T18:05:57;9.31;;;3.61;;
56680;SDS011;42558;52.388;13.390;2022-09-21T18:08:30;8.93;;;4.18;;
56680;SDS011;42558;52.388;13.390;2022-09-21T18:14:23;8.17;;;3.80;;
56680;SDS011;42558;52.388;13.390;2022-09-21T18:23:01;6.65;;;3.61;;
56680;SDS011;42558;52.388;13.390;2022-09-21T18:25:42;6.08;;;2.85;;
56680;SDS011;42558;52.388;13.390;2022-09-21T18:38:03;6.08;;;2.66;;
56680;SDS011;42558;52.388;13.390;2022-09-21T18:41:10;7.03;;;2.66;;
56680;SDS011;42558;52.388;13.390;2022-09-21T18:44:25;8.55;;;2.66;;
56680;SDS011;42558;52.388;13.390;2022-09-21T18:47:22;7.98;;;2.47;;
56680;SDS011;42558;52.388;13.390;2022-09-21T18:50:05;8.55;;;3.04;;
56680;SDS011;42558;52.388;13.390;2022-09-21T18:53:14;9.31;;;2.47;;